Time;durP1;ratioP1;P1;durP2;ratioP2;P2;SDS_P1;SDS_P2;PMS_P1;PMS_P2;Temp;Humidity;BMP_temperature;BMP_pressure;BME280_temperature;BME280_humidity;BME280_pressure;Samples;Min_cycle;Max_cycle;Signal;HPM_P1;HPM_P2
2024/01/03 00:51:32;;;;;;;0.20;0.20;;;;;;;9.51;77.43;95022.66;5867641;23;20041;-82
2024/01/03 07:01:48;;;;;;;2.75;0.60;;;;;;;9.03;73.40;95173.09;4973337;28;20386;-79
2024/01/03 07:04:21;;;;;;;2.17;0.70;;;;;;;9.02;74.18;95157.69;4983445;28;20051;-81
2024/01/03 07:06:53;;;;;;;1.75;0.68;;;;;;;9.03;73.91;95162.69;4976553;28;20062;-81
2024/01/03 07:09:20;;;;;;;1.52;0.30;;;;;;;9.03;73.30;95167.91;4951338;29;20054;-79
2024/01/03 07:11:48;;;;;;;1.63;0.50;;;;;;;9.02;73.10;95174.09;4952127;29;20071;-81
2024/01/03 07:14:15;;;;;;;3.63;0.50;;;;;;;9.03;72.94;95170.50;4953988;28;20509;-81
2024/01/03 07:16:43;;;;;;;1.38;0.68;;;;;;;9.04;73.18;95179.09;4957226;29;20047;-82
2024/01/03 07:19:14;;;;;;;1.95;0.40;;;;;;;9.06;73.26;95171.88;4959015;29;20508;-81
2024/01/03 07:21:42;;;;;;;1.13;0.50;;;;;;;9.06;73.43;95170.06;4970979;29;20079;-81
2024/01/03 07:24:10;;;;;;;2.05;0.40;;;;;;;9.06;72.90;95162.25;4975573;28;20043;-81
2024/01/03 07:26:37;;;;;;;2.15;0.30;;;;;;;9.08;72.43;95172.47;4964616;28;20147;-81
2024/01/03 07:29:05;;;;;;;1.50;0.43;;;;;;;9.07;72.27;95171.69;4952642;28;20048;-81
2024/01/03 07:31:33;;;;;;;2.50;0.73;;;;;;;9.10;73.19;95174.88;4956127;29;20090;-81
2024/01/03 07:34:00;;;;;;;1.27;0.30;;;;;;;9.08;72.12;95191.47;4959215;28;20051;-81
2024/01/03 07:36:29;;;;;;;1.52;0.30;;;;;;;9.11;71.89;95189.47;4959613;29;20114;-81
2024/01/03 07:38:58;;;;;;;1.35;0.50;;;;;;;9.12;72.59;95180.63;4941279;29;20076;-81
2024/01/03 07:41:25;;;;;;;1.92;0.90;;;;;;;9.14;72.34;95181.22;4958806;29;20056;-82
2024/01/03 07:43:53;;;;;;;2.05;0.80;;;;;;;9.16;71.79;95174.84;4946065;29;20063;-81
2024/01/03 07:46:21;;;;;;;2.40;0.75;;;;;;;9.18;71.69;95179.81;4950401;29;20119;-80
2024/01/03 07:48:48;;;;;;;2.92;0.43;;;;;;;9.19;71.02;95179.63;4960873;28;20584;-81
2024/01/03 07:51:18;;;;;;;3.03;0.57;;;;;;;9.22;71.21;95184.41;4955577;28;20047;-81
2024/01/03 07:53:47;;;;;;;1.15;0.55;;;;;;;9.25;71.48;95193.63;4959134;29;20093;-81
2024/01/03 07:56:15;;;;;;;3.63;0.93;;;;;;;9.27;71.13;95196.78;4959064;29;20437;-81
2024/01/03 07:58:43;;;;;;;1.98;0.55;;;;;;;9.28;70.85;95182.78;4952314;28;20138;-80
2024/01/03 08:01:10;;;;;;;3.50;0.60;;;;;;;9.30;71.55;95178.16;4950647;28;20059;-81
2024/01/03 08:03:38;;;;;;;1.67;0.60;;;;;;;9.33;71.50;95180.34;4955352;29;20062;-82
2024/01/03 08:06:06;;;;;;;0.63;0.50;;;;;;;9.36;71.67;95174.72;4943797;29;20055;-82
2024/01/03 08:08:34;;;;;;;2.55;0.52;;;;;;;9.38;70.69;95154.50;4940357;29;20056;-82
2024/01/03 08:11:03;;;;;;;3.40;0.80;;;;;;;9.41;71.86;95169.69;4940325;29;20107;-82
2024/01/03 08:13:30;;;;;;;1.20;0.65;;;;;;;9.43;70.98;95167.69;4944332;29;20533;-82
2024/01/03 08:15:58;;;;;;;2.97;0.68;;;;;;;9.45;70.49;95163.06;4952896;29;20086;-81
2024/01/03 08:18:25;;;;;;;1.95;1.15;;;;;;;9.49;70.91;95160.84;4944888;28;20154;-80
2024/01/03 08:20:53;;;;;;;2.30;0.82;;;;;;;9.51;70.26;95142.41;4949661;29;20149;-80
2024/01/03 08:23:21;;;;;;;1.35;0.50;;;;;;;9.54;69.86;95142.78;4955747;28;20083;-81
2024/01/03 08:25:49;;;;;;;1.42;0.60;;;;;;;9.58;70.32;95156.97;4957182;28;20047;-81
2024/01/03 08:28:18;;;;;;;1.20;0.60;;;;;;;9.62;70.73;95147.75;4956051;28;20126;-81
2024/01/03 08:30:45;;;;;;;1.55;0.32;;;;;;;9.68;69.75;95146.09;4950904;28;20054;-81
2024/01/03 08:33:13;;;;;;;1.20;0.40;;;;;;;9.70;68.71;95165.69;4938378;29;20059;-81
2024/01/03 08:35:40;;;;;;;2.42;0.43;;;;;;;9.73;68.33;95163.69;4949756;29;20063;-81
2024/01/03 08:38:08;;;;;;;1.27;0.30;;;;;;;9.74;68.12;95160.88;4955491;28;20051;-81
2024/01/03 08:40:36;;;;;;;3.25;0.68;;;;;;;9.76;68.34;95161.47;4962708;28;20090;-81
2024/01/03 08:43:04;;;;;;;2.08;0.52;;;;;;;9.79;67.86;95163.63;4954200;29;20127;-81
2024/01/03 08:45:33;;;;;;;2.28;0.80;;;;;;;9.83;67.39;95143.19;4939327;29;20130;-81
2024/01/03 08:48:03;;;;;;;2.45;0.43;;;;;;;9.88;67.82;95149.34;4948549;28;20464;-80
2024/01/03 08:50:31;;;;;;;1.67;0.45;;;;;;;9.96;67.09;95142.28;4958121;29;20082;-81
2024/01/03 08:52:58;;;;;;;2.17;0.52;;;;;;;10.01;67.47;95148.41;4938671;29;20043;-81
2024/01/03 08:55:26;;;;;;;1.85;0.40;;;;;;;10.04;66.65;95149.81;4938173;29;20134;-81
2024/01/03 08:57:56;;;;;;;3.83;0.47;;;;;;;10.08;66.65;95145.78;4938102;29;20106;-80
2024/01/03 09:00:24;;;;;;;4.10;0.65;;;;;;;10.12;66.55;95141.72;4940195;29;20097;-81
2024/01/03 09:02:57;;;;;;;1.15;0.25;;;;;;;10.15;66.83;95136.09;4946225;29;20138;-81
2024/01/03 09:05:24;;;;;;;1.73;0.40;;;;;;;10.19;66.38;95149.47;4938108;29;20548;-81
2024/01/03 09:07:52;;;;;;;2.72;1.77;;;;;;;10.21;66.32;95145.66;4938175;29;20532;-81
2024/01/03 09:10:20;;;;;;;2.55;0.85;;;;;;;10.24;66.28;95147.84;4947498;29;20052;-80
2024/01/03 09:12:47;;;;;;;1.92;0.30;;;;;;;10.26;65.64;95153.63;4952618;29;20061;-81
2024/01/03 09:15:15;;;;;;;1.35;0.40;;;;;;;10.26;65.45;95143.19;4950710;29;20055;-82
2024/01/03 09:17:43;;;;;;;1.13;0.52;;;;;;;10.29;66.50;95155.81;4938196;29;20055;-80
2024/01/03 09:20:13;;;;;;;1.83;0.55;;;;;;;10.31;65.62;95166.03;4938025;29;20074;-81
2024/01/03 09:22:41;;;;;;;1.58;0.30;;;;;;;10.31;65.91;95164.22;4937485;29;20047;-80
2024/01/03 09:25:09;;;;;;;1.00;0.38;;;;;;;10.31;66.84;95166.03;4941752;29;20050;-81
2024/01/03 09:27:36;;;;;;;0.47;0.38;;;;;;;10.31;66.24;95161.63;4939468;29;20504;-81
2024/01/03 09:30:06;;;;;;;1.67;0.47;;;;;;;10.32;66.23;95165.03;4948054;29;20047;-80
2024/01/03 09:32:34;;;;;;;2.38;0.65;;;;;;;10.33;66.62;95173.66;4955506;28;20047;-81
2024/01/03 09:35:02;;;;;;;0.63;0.30;;;;;;;10.33;65.70;95163.22;4955095;28;20047;-81
2024/01/03 09:37:31;;;;;;;1.33;0.40;;;;;;;10.32;65.55;95193.72;4945597;28;20107;-81
2024/01/03 09:39:59;;;;;;;3.20;1.00;;;;;;;10.34;67.11;95177.84;4939792;29;20659;-82
2024/01/03 09:42:28;;;;;;;1.15;0.32;;;;;;;10.32;66.11;95172.88;4956674;29;20044;-82
2024/01/03 09:44:58;;;;;;;0.80;0.63;;;;;;;10.31;66.06;95182.47;4955245;28;20131;-81
2024/01/03 09:47:26;;;;;;;2.05;0.70;;;;;;;10.33;66.74;95194.50;4948022;28;20051;-81
2024/01/03 09:49:53;;;;;;;1.73;0.50;;;;;;;10.31;66.49;95187.69;4956190;29;20130;-82
2024/01/03 09:52:21;;;;;;;0.65;0.32;;;;;;;10.30;65.81;95191.31;4956519;29;20059;-81
2024/01/03 09:54:50;;;;;;;5.03;0.50;;;;;;;10.28;66.15;95188.09;4957484;29;20152;-82
2024/01/03 09:57:19;;;;;;;2.25;0.60;;;;;;;10.28;66.30;95187.31;4957156;28;20576;-82
2024/01/03 09:59:46;;;;;;;4.53;0.70;;;;;;;10.25;65.90;95174.69;4943071;28;20063;-81
2024/01/03 10:02:14;;;;;;;1.08;0.32;;;;;;;10.25;66.36;95188.50;4953870;29;20083;-81
2024/01/03 10:04:45;;;;;;;1.30;0.30;;;;;;;10.23;66.23;95185.34;4956006;29;20497;-81
2024/01/03 10:07:12;;;;;;;1.17;0.30;;;;;;;10.24;66.84;95186.91;4956815;29;20058;-81
2024/01/03 10:09:42;;;;;;;1.90;0.25;;;;;;;10.25;66.03;95187.72;4966958;29;20106;-81
2024/01/03 10:12:17;;;;;;;1.55;0.30;;;;;;;10.23;66.30;95184.53;4937548;29;20055;-81
2024/01/03 10:14:45;;;;;;;2.55;1.20;;;;;;;10.22;67.11;95183.72;4949430;29;20054;-82
2024/01/03 10:17:13;;;;;;;1.05;0.30;;;;;;;10.23;68.31;95185.34;4939177;29;20081;-80
2024/01/03 10:19:40;;;;;;;3.13;1.38;;;;;;;10.23;67.85;95195.75;4940916;29;20052;-81
2024/01/03 10:22:08;;;;;;;3.05;0.65;;;;;;;10.21;68.13;95189.97;4936827;29;20056;-81
2024/01/03 10:24:42;;;;;;;2.03;0.80;;;;;;;10.20;68.69;95190.97;4936867;29;20083;-81
2024/01/03 10:27:11;;;;;;;3.53;0.52;;;;;;;10.21;68.73;95191.75;4936933;29;20505;-81
2024/01/03 10:29:40;;;;;;;1.23;0.47;;;;;;;10.19;68.70;95184.16;4937238;29;20624;-82
2024/01/03 10:32:10;;;;;;;3.72;0.95;;;;;;;10.20;69.22;95179.75;4939042;29;20460;-81
2024/01/03 10:34:38;;;;;;;3.88;0.70;;;;;;;10.21;69.22;95181.31;4978100;28;20047;-81
2024/01/03 10:37:06;;;;;;;4.15;0.80;;;;;;;10.22;69.69;95173.31;4977477;28;20047;-82
2024/01/03 10:39:35;;;;;;;2.17;0.75;;;;;;;10.23;69.06;95166.28;4959390;29;20115;-81
2024/01/03 10:42:07;;;;;;;3.47;0.60;;;;;;;10.23;69.47;95161.06;4956083;28;20572;-81
2024/01/03 10:44:36;;;;;;;3.00;0.70;;;;;;;10.23;69.32;95168.88;4941470;29;20501;-81
2024/01/03 10:47:06;;;;;;;2.67;0.50;;;;;;;10.22;69.23;95162.88;4940938;29;20052;-81
2024/01/03 10:49:34;;;;;;;2.72;0.55;;;;;;;10.22;68.13;95165.50;4937735;29;20107;-81
2024/01/03 10:52:03;;;;;;;1.48;0.77;;;;;;;10.21;67.85;95163.91;4955841;29;20421;-82
2024/01/03 10:54:41;;;;;;;3.85;0.50;;;;;;;10.19;67.61;95165.94;4960230;28;20051;-82
2024/01/03 10:57:11;;;;;;;3.67;1.60;;;;;;;10.21;68.49;95174.34;4964206;28;20497;-82
2024/01/03 10:59:52;;;;;;;5.47;1.02;;;;;;;10.20;68.14;95175.31;4947430;29;20051;-82
2024/01/03 11:02:31;;;;;;;3.05;0.50;;;;;;;10.20;68.77;95154.47;4944402;29;20050;-81
2024/01/03 11:05:06;;;;;;;1.20;0.50;;;;;;;10.17;68.01;95147.09;4940344;29;20055;-80
2024/01/03 11:07:40;;;;;;;0.55;0.43;;;;;;;10.16;67.70;95163.72;4945085;28;20055;-81
2024/01/03 11:10:07;;;;;;;2.38;0.40;;;;;;;10.18;68.21;95182.56;4955725;29;20078;-81
2024/01/03 11:12:35;;;;;;;4.55;0.77;;;;;;;10.17;68.75;95167.16;4953854;29;20051;-80
2024/01/03 11:15:24;;;;;;;5.18;0.93;;;;;;;10.17;69.32;95154.13;4942510;29;20505;-80
2024/01/03 11:18:09;;;;;;;2.97;0.70;;;;;;;10.18;68.50;95166.94;4948691;29;20066;-80
2024/01/03 11:20:38;;;;;;;1.45;0.45;;;;;;;10.22;68.45;95162.09;4953860;29;20130;-82
2024/01/03 11:23:05;;;;;;;1.75;0.60;;;;;;;10.24;67.85;95160.88;4946675;29;20051;-80
2024/01/03 11:25:52;;;;;;;1.73;0.40;;;;;;;10.27;67.68;95185.69;4935875;29;20080;-80
2024/01/03 11:28:32;;;;;;;1.63;0.45;;;;;;;10.29;67.53;95153.22;4936715;29;20047;-81
2024/01/03 11:31:01;;;;;;;0.63;0.55;;;;;;;10.34;67.42;95154.38;4936873;29;20054;-80
2024/01/03 11:33:31;;;;;;;3.13;0.82;;;;;;;10.37;68.31;95156.56;4935765;29;20150;-80
2024/01/03 11:36:00;;;;;;;2.30;0.70;;;;;;;10.41;67.65;95163.75;4949008;29;20110;-80
2024/01/03 11:38:41;;;;;;;1.98;0.50;;;;;;;10.45;66.40;95151.06;4954561;29;20103;-81
2024/01/03 11:41:09;;;;;;;2.20;0.75;;;;;;;10.46;66.34;95152.66;4954782;29;20051;-81
2024/01/03 11:43:37;;;;;;;3.58;1.00;;;;;;;10.49;66.88;95152.22;4950126;29;20138;-82
2024/01/03 11:46:09;;;;;;;6.78;1.05;;;;;;;10.54;65.38;95156.78;4955030;29;20461;-81
2024/01/03 11:48:38;;;;;;;3.10;0.65;;;;;;;10.60;65.88;95155.94;4943913;28;20051;-81
2024/01/03 11:51:22;;;;;;;1.65;0.47;;;;;;;10.64;64.80;95154.47;4935877;29;20079;-81
2024/01/03 11:53:49;;;;;;;1.40;0.30;;;;;;;10.65;65.53;95154.28;4938532;29;20047;-81
2024/01/03 11:56:27;;;;;;;1.80;0.88;;;;;;;10.69;65.55;95163.25;4955354;29;20051;-82
2024/01/03 11:58:55;;;;;;;1.00;0.50;;;;;;;10.74;65.37;95146.16;4953977;28;20063;-81
2024/01/03 12:01:22;;;;;;;1.42;0.47;;;;;;;10.77;65.49;95137.91;4957593;29;20051;-82
2024/01/03 12:04:07;;;;;;;0.68;0.30;;;;;;;10.80;66.17;95150.47;4957574;29;20051;-81
2024/01/03 12:06:35;;;;;;;2.97;1.05;;;;;;;10.82;66.01;95151.06;4939134;29;20059;-82
2024/01/03 12:09:03;;;;;;;2.15;0.30;;;;;;;10.85;66.74;95146.22;4954055;29;20051;-81
2024/01/03 12:11:32;;;;;;;1.45;0.40;;;;;;;10.94;65.45;95154.53;4954329;28;20424;-81
2024/01/03 12:14:00;;;;;;;0.68;0.45;;;;;;;11.04;65.20;95160.06;4955950;28;20103;-81
2024/01/03 12:16:28;;;;;;;0.70;0.20;;;;;;;11.16;64.71;95139.22;4967023;28;20055;-82
2024/01/03 12:18:56;;;;;;;1.08;0.30;;;;;;;11.33;64.59;95157.66;4944669;29;20138;-81
2024/01/03 12:21:24;;;;;;;1.75;0.30;;;;;;;11.46;64.02;95141.81;4938396;29;20510;-81
2024/01/03 12:23:55;;;;;;;2.28;0.30;;;;;;;11.52;62.68;95156.59;4937763;29;20106;-81
2024/01/03 12:26:23;;;;;;;0.85;0.22;;;;;;;11.53;62.97;95155.56;4938279;29;20067;-81
2024/01/03 12:28:53;;;;;;;2.17;0.43;;;;;;;11.53;62.44;95157.41;4948554;29;20055;-81
2024/01/03 12:31:24;;;;;;;1.98;0.52;;;;;;;11.49;62.43;95157.03;4947775;29;20059;-81
2024/01/03 12:33:52;;;;;;;2.15;0.52;;;;;;;11.46;62.67;95156.69;4938186;29;20056;-82
2024/01/03 12:36:21;;;;;;;1.58;0.70;;;;;;;11.40;63.67;95147.94;4938915;29;20142;-81
2024/01/03 12:38:58;;;;;;;1.77;0.63;;;;;;;11.34;64.64;95148.81;4942145;28;20054;-81
2024/01/03 12:41:26;;;;;;;2.50;0.75;;;;;;;11.32;63.63;95150.84;4959941;28;20420;-81
2024/01/03 12:43:53;;;;;;;1.52;0.30;;;;;;;11.32;63.27;95124.75;4958594;29;20101;-82
2024/01/03 12:46:21;;;;;;;1.02;0.40;;;;;;;11.31;63.06;95129.16;4955664;29;20058;-82
2024/01/03 12:48:50;;;;;;;1.80;0.45;;;;;;;11.32;63.97;95124.75;4944777;29;20060;-81
2024/01/03 12:51:18;;;;;;;1.88;0.77;;;;;;;11.37;64.26;95116.22;4957090;29;20097;-81
2024/01/03 12:53:53;;;;;;;3.60;0.57;;;;;;;11.37;63.52;95105.78;4956650;28;20058;-81
2024/01/03 12:56:21;;;;;;;1.80;0.45;;;;;;;11.37;63.32;95106.63;4949406;28;20078;-80
2024/01/03 12:58:49;;;;;;;2.65;0.52;;;;;;;11.39;64.19;95109.81;4949268;28;20084;-80
2024/01/03 13:01:17;;;;;;;2.17;0.80;;;;;;;11.40;63.73;95116.59;4948981;28;20055;-81
2024/01/03 13:03:44;;;;;;;2.15;0.60;;;;;;;11.39;64.09;95106.38;4937296;29;20058;-80
2024/01/03 13:06:12;;;;;;;2.55;0.70;;;;;;;11.40;64.29;95124.44;4951134;29;20048;-81
2024/01/03 13:08:40;;;;;;;1.50;0.40;;;;;;;11.40;65.02;95111.38;4953575;28;20054;-81
2024/01/03 13:11:09;;;;;;;1.20;0.60;;;;;;;11.37;64.51;95111.00;4938465;28;20055;-81
2024/01/03 13:13:37;;;;;;;1.67;0.50;;;;;;;11.36;64.24;95110.22;4937515;29;20495;-82
2024/01/03 13:16:05;;;;;;;2.20;0.28;;;;;;;11.33;64.29;95116.69;4950818;29;20047;-81
2024/01/03 13:18:33;;;;;;;0.38;0.10;;;;;;;11.30;64.15;95085.81;4954089;28;20102;-82
2024/01/03 13:21:00;;;;;;;1.48;0.17;;;;;;;11.30;64.86;95095.44;4938519;29;20398;-81
2024/01/03 13:23:28;;;;;;;2.03;0.30;;;;;;;11.31;64.22;95086.63;4938068;29;20437;-81
2024/01/03 13:25:56;;;;;;;2.20;0.47;;;;;;;11.35;63.83;95082.53;4949158;29;20047;-81
2024/01/03 13:28:24;;;;;;;2.45;0.68;;;;;;;11.37;65.35;95079.69;4957114;28;20074;-80
2024/01/03 13:30:52;;;;;;;0.98;0.30;;;;;;;11.42;64.05;95077.22;4946265;29;20053;-81
2024/01/03 13:33:20;;;;;;;1.65;0.30;;;;;;;11.45;62.89;95077.56;4956344;28;20048;-81
2024/01/03 13:35:48;;;;;;;1.30;0.30;;;;;;;11.49;62.56;95078.69;4957197;29;20062;-82
2024/01/03 13:38:16;;;;;;;3.65;0.40;;;;;;;11.54;63.93;95081.44;4956549;28;20051;-80
2024/01/03 13:40:46;;;;;;;2.08;0.40;;;;;;;11.63;62.50;95083.72;4955389;29;20512;-82
2024/01/03 13:43:13;;;;;;;3.00;0.40;;;;;;;11.74;62.79;95096.81;4939987;29;20111;-81
2024/01/03 13:45:42;;;;;;;2.00;0.38;;;;;;;11.80;62.08;95078.63;4958562;29;20059;-81
2024/01/03 13:48:10;;;;;;;0.65;0.22;;;;;;;11.84;62.20;95072.72;4977768;28;20051;-81
2024/01/03 13:50:38;;;;;;;0.57;0.35;;;;;;;11.88;62.45;95076.50;4963749;29;20051;-81
2024/01/03 13:53:06;;;;;;;2.10;0.30;;;;;;;11.89;61.88;95072.84;4962510;29;20048;-82
2024/01/03 13:55:34;;;;;;;1.38;0.30;;;;;;;11.85;60.92;95074.31;4965778;28;20115;-82
2024/01/03 13:58:02;;;;;;;3.38;0.40;;;;;;;11.81;61.51;95075.78;4959592;28;20138;-82
2024/01/03 14:00:31;;;;;;;1.83;0.47;;;;;;;11.78;61.33;95063.16;4961562;28;20138;-82
2024/01/03 14:03:00;;;;;;;0.70;0.40;;;;;;;11.73;61.57;95069.06;4949897;28;20062;-81
2024/01/03 14:05:28;;;;;;;0.68;0.50;;;;;;;11.67;60.95;95074.41;4961109;28;20058;-81
2024/01/03 14:07:56;;;;;;;6.28;1.45;;;;;;;11.63;61.14;95076.69;4962710;28;20421;-82
2024/01/03 14:10:24;;;;;;;2.35;0.60;;;;;;;11.60;61.07;95086.78;4954717;29;20130;-81
2024/01/03 14:12:52;;;;;;;2.53;0.85;;;;;;;11.53;61.45;95074.63;4956259;29;20102;-81
2024/01/03 14:15:19;;;;;;;1.52;0.75;;;;;;;11.48;62.77;95084.16;4950505;28;20043;-81
2024/01/03 14:17:48;;;;;;;4.18;0.70;;;;;;;11.42;63.55;95053.72;4951630;28;20075;-82
2024/01/03 14:20:17;;;;;;;1.52;0.60;;;;;;;11.34;63.43;95071.28;4947031;28;20521;-82
2024/01/03 14:22:45;;;;;;;1.90;0.60;;;;;;;11.29;63.98;95067.75;4953024;29;20048;-81
2024/01/03 14:25:13;;;;;;;1.38;0.50;;;;;;;11.25;64.87;95077.84;4948314;29;20051;-82
2024/01/03 14:27:42;;;;;;;1.92;0.60;;;;;;;11.20;65.07;95075.13;4957435;28;20428;-81
2024/01/03 14:30:12;;;;;;;2.55;0.50;;;;;;;11.13;65.11;95080.44;4955738;29;20055;-82
2024/01/03 14:32:41;;;;;;;1.10;0.40;;;;;;;11.07;66.51;95077.91;4942207;29;20109;-82
2024/01/03 14:35:09;;;;;;;1.40;0.38;;;;;;;11.00;67.33;95091.06;4955358;28;20125;-81
2024/01/03 14:37:38;;;;;;;3.50;0.70;;;;;;;10.94;68.55;95089.31;4955262;28;20090;-80
2024/01/03 14:40:14;;;;;;;2.20;0.60;;;;;;;10.89;68.55;95076.16;4941170;29;20135;-82
2024/01/03 14:42:47;;;;;;;4.75;1.13;;;;;;;10.85;68.51;95067.19;4957183;29;20174;-82
2024/01/03 14:45:16;;;;;;;4.25;0.85;;;;;;;10.81;68.54;95072.03;4957213;28;20550;-82
2024/01/03 14:47:45;;;;;;;5.28;0.75;;;;;;;10.77;69.35;95064.88;4936781;29;20394;-81
2024/01/03 14:50:14;;;;;;;2.97;0.73;;;;;;;10.75;69.99;95065.06;4936209;29;20058;-81
2024/01/03 14:52:43;;;;;;;1.02;0.60;;;;;;;10.73;70.45;95069.72;4949269;28;20050;-81
2024/01/03 14:55:11;;;;;;;27.20;7.63;;;;;;;10.72;70.72;95068.94;4941741;29;20056;-81
2024/01/03 14:57:40;;;;;;;41.38;18.60;;;;;;;10.72;70.70;95063.72;4936107;29;20506;-82
2024/01/03 15:00:08;;;;;;;39.10;16.80;;;;;;;10.69;71.55;95058.94;4936838;29;20048;-82
2024/01/03 15:02:36;;;;;;;10.35;4.68;;;;;;;10.66;71.29;95063.78;4953197;29;20055;-81
2024/01/03 15:05:05;;;;;;;9.15;3.67;;;;;;;10.66;71.58;95069.00;4952228;29;20048;-81
2024/01/03 15:07:32;;;;;;;23.98;7.10;;;;;;;10.64;72.01;95065.81;4944795;28;20600;-82
2024/01/03 15:10:01;;;;;;;25.70;8.25;;;;;;;10.62;72.14;95060.81;4946148;28;20047;-82
2024/01/03 15:12:29;;;;;;;43.50;10.00;;;;;;;10.60;72.30;95068.06;4935946;29;20107;-81
2024/01/03 15:14:56;;;;;;;4.95;1.30;;;;;;;10.57;71.79;95068.50;4935849;29;20428;-81
2024/01/03 15:17:24;;;;;;;3.45;0.82;;;;;;;10.55;72.07;95062.72;4952677;28;20480;-81
2024/01/03 15:19:51;;;;;;;3.42;0.90;;;;;;;10.56;71.47;95050.47;4955029;29;20062;-80
2024/01/03 15:22:19;;;;;;;3.20;0.82;;;;;;;10.53;71.47;95054.31;4958603;29;20142;-81
2024/01/03 15:24:47;;;;;;;2.33;0.80;;;;;;;10.49;71.93;95050.56;4960396;29;20051;-81
2024/01/03 15:27:17;;;;;;;2.15;0.63;;;;;;;10.47;72.17;95057.78;4961207;28;20142;-79
2024/01/03 15:29:45;;;;;;;1.63;0.75;;;;;;;10.43;72.51;95052.25;4948695;28;20115;-80
2024/01/03 15:32:13;;;;;;;6.40;0.90;;;;;;;10.43;72.03;95035.78;4944286;29;20056;-81
2024/01/03 15:34:40;;;;;;;1.35;0.85;;;;;;;10.43;73.19;95033.16;4940617;29;20057;-81
2024/01/03 15:37:10;;;;;;;1.90;0.60;;;;;;;10.43;72.66;95038.38;4941126;29;20047;-80
2024/01/03 15:39:38;;;;;;;13.88;8.43;;;;;;;10.44;72.64;95029.56;4948651;29;20047;-82
2024/01/03 15:42:08;;;;;;;13.77;7.93;;;;;;;10.43;73.91;95027.97;4960766;28;20732;-81
2024/01/03 15:44:39;;;;;;;2.22;1.10;;;;;;;10.43;72.83;95020.13;4944479;29;20048;-81
2024/01/03 15:47:07;;;;;;;1.42;0.70;;;;;;;10.44;74.08;95019.13;4942278;29;20044;-82
2024/01/03 15:49:35;;;;;;;3.95;1.20;;;;;;;10.43;73.89;95028.78;4949523;28;20051;-81
2024/01/03 15:52:07;;;;;;;3.22;1.17;;;;;;;10.42;72.78;95027.16;4949500;28;20056;-81
2024/01/03 15:54:35;;;;;;;2.30;0.93;;;;;;;10.41;72.95;95024.81;4939600;29;20118;-82
2024/01/03 15:57:13;;;;;;;4.07;1.20;;;;;;;10.41;73.33;95020.38;4942770;29;20062;-82
2024/01/03 15:59:43;;;;;;;3.92;1.15;;;;;;;10.37;72.46;95008.00;4941826;29;20058;-81
2024/01/03 16:02:12;;;;;;;2.45;0.60;;;;;;;10.36;71.53;95019.44;4949218;29;20047;-81
2024/01/03 16:04:40;;;;;;;1.17;0.88;;;;;;;10.35;71.25;95016.03;4957455;28;20138;-82
2024/01/03 16:07:08;;;;;;;2.13;0.70;;;;;;;10.35;71.31;95015.25;4958686;28;20134;-81
2024/01/03 16:09:37;;;;;;;4.10;0.63;;;;;;;10.35;70.86;95010.03;4969570;28;20050;-80
2024/01/03 16:12:05;;;;;;;1.60;0.80;;;;;;;10.34;70.91;95014.44;4976906;28;20047;-81
2024/01/03 16:14:33;;;;;;;0.85;0.40;;;;;;;10.33;69.61;95007.63;4944751;28;20066;-82
2024/01/03 16:17:03;;;;;;;2.55;0.55;;;;;;;10.33;71.20;95001.63;4954305;28;20505;-82
2024/01/03 16:19:31;;;;;;;2.65;0.70;;;;;;;10.35;70.23;95010.03;4944300;28;20139;-82
2024/01/03 16:21:58;;;;;;;1.25;1.02;;;;;;;10.34;70.25;95006.59;4951322;29;20058;-81
2024/01/03 16:24:26;;;;;;;4.57;1.42;;;;;;;10.35;69.57;95004.81;4958141;29;20117;-81
2024/01/03 16:26:55;;;;;;;1.50;0.70;;;;;;;10.35;68.68;95007.44;4957738;28;20135;-80
2024/01/03 16:29:24;;;;;;;2.13;0.60;;;;;;;10.33;69.10;94999.03;4950262;29;20052;-81
2024/01/03 16:31:53;;;;;;;1.35;0.45;;;;;;;10.33;68.23;95002.41;4943156;29;20055;-82
2024/01/03 16:34:25;;;;;;;2.20;0.88;;;;;;;10.31;67.93;95002.63;4940265;29;20493;-81
2024/01/03 16:36:54;;;;;;;2.17;0.60;;;;;;;10.31;68.63;95000.03;4940814;29;20300;-82
2024/01/03 16:39:21;;;;;;;1.35;0.70;;;;;;;10.31;69.74;94988.81;4939220;29;20134;-81
2024/01/03 16:41:49;;;;;;;1.77;0.80;;;;;;;10.29;68.53;94981.22;4955939;29;20079;-82
2024/01/03 16:44:17;;;;;;;1.13;0.65;;;;;;;10.28;68.50;94991.84;4960786;29;20078;-82
2024/01/03 16:46:46;;;;;;;1.27;0.32;;;;;;;10.26;67.71;94992.06;4959249;29;20055;-81
2024/01/03 16:49:15;;;;;;;1.73;0.40;;;;;;;10.25;68.09;94984.44;4945577;29;20553;-80
2024/01/03 16:51:48;;;;;;;0.98;0.40;;;;;;;10.26;68.89;94984.22;4938826;29;20485;-80
2024/01/03 16:54:16;;;;;;;1.50;0.52;;;;;;;10.26;67.92;94976.41;4937700;29;20044;-81
2024/01/03 16:56:45;;;;;;;2.50;0.85;;;;;;;10.26;68.30;94978.22;4953180;29;20043;-80
2024/01/03 16:59:15;;;;;;;1.52;0.52;;;;;;;10.26;67.62;94976.41;4970589;28;20089;-79
2024/01/03 17:01:43;;;;;;;1.10;0.55;;;;;;;10.27;68.52;94962.34;4955939;29;20138;-81
2024/01/03 17:04:12;;;;;;;2.80;0.90;;;;;;;10.29;68.49;94968.19;4955613;29;20440;-81
2024/01/03 17:06:40;;;;;;;1.95;0.70;;;;;;;10.28;69.59;94963.97;4965671;29;20051;-82
2024/01/03 17:09:10;;;;;;;2.60;0.90;;;;;;;10.30;68.30;94963.78;4966942;29;20055;-82
2024/01/03 17:11:38;;;;;;;1.60;1.10;;;;;;;10.29;69.02;94960.34;4966001;29;20452;-81
2024/01/03 17:14:06;;;;;;;1.42;0.60;;;;;;;10.29;68.32;94964.78;4956833;29;20050;-82
2024/01/03 17:16:34;;;;;;;1.25;0.52;;;;;;;10.28;69.40;94956.16;4961717;28;20054;-81
2024/01/03 17:19:02;;;;;;;0.68;0.45;;;;;;;10.30;69.44;94959.34;4950945;28;20057;-81
2024/01/03 17:21:31;;;;;;;3.58;0.85;;;;;;;10.31;69.80;94957.53;4953934;29;20051;-81
2024/01/03 17:23:59;;;;;;;3.95;0.90;;;;;;;10.30;70.33;94961.97;4948172;29;20044;-81
2024/01/03 17:26:34;;;;;;;2.05;0.70;;;;;;;10.33;70.89;94950.28;4956443;28;20078;-80
2024/01/03 17:29:03;;;;;;;1.10;0.50;;;;;;;10.34;68.79;94962.31;4956571;28;20054;-82
2024/01/03 17:31:34;;;;;;;1.52;1.10;;;;;;;10.35;69.16;94955.31;4946862;29;20111;-82
2024/01/03 17:34:02;;;;;;;3.40;1.52;;;;;;;10.36;68.76;94956.88;4947566;29;20093;-81
2024/01/03 17:36:30;;;;;;;1.50;1.17;;;;;;;10.36;69.06;94962.88;4954802;29;20078;-80
2024/01/03 17:38:58;;;;;;;4.35;1.60;;;;;;;10.38;69.37;94967.88;4956154;28;20047;-80
2024/01/03 17:41:29;;;;;;;1.63;1.10;;;;;;;10.37;67.52;94967.09;4955960;29;20429;-80
2024/01/03 17:43:58;;;;;;;2.63;1.40;;;;;;;10.38;67.58;94967.88;4947417;29;20047;-80
2024/01/03 17:46:26;;;;;;;3.97;1.65;;;;;;;10.40;69.20;94952.81;4947399;29;20043;-80
2024/01/03 17:48:53;;;;;;;4.32;1.10;;;;;;;10.40;68.19;94940.56;4955668;28;20086;-79
2024/01/03 17:51:22;;;;;;;2.20;1.15;;;;;;;10.40;67.94;94924.16;4949040;29;20051;-80
2024/01/03 17:53:50;;;;;;;2.95;1.02;;;;;;;10.41;68.10;94928.34;4938875;29;20080;-81
2024/01/03 17:56:22;;;;;;;3.58;1.67;;;;;;;10.41;67.80;94921.31;4936584;29;20055;-80
2024/01/03 17:58:52;;;;;;;3.78;1.27;;;;;;;10.42;68.19;94919.50;4936671;29;20081;-80
2024/01/03 18:01:21;;;;;;;4.07;1.23;;;;;;;10.43;68.47;94902.84;4946337;29;20133;-80
2024/01/03 18:03:50;;;;;;;2.03;0.73;;;;;;;10.45;67.99;94911.22;4955036;28;20047;-79
2024/01/03 18:06:18;;;;;;;1.55;1.30;;;;;;;10.44;67.79;94918.25;4944747;29;20139;-81
2024/01/03 18:08:45;;;;;;;2.58;1.40;;;;;;;10.46;67.45;94907.63;4936655;29;20056;-80
2024/01/03 18:11:13;;;;;;;5.28;1.20;;;;;;;10.46;67.77;94924.06;4936218;29;20568;-80
2024/01/03 18:13:41;;;;;;;3.92;1.13;;;;;;;10.46;67.93;94939.69;4936582;28;20084;-80
2024/01/03 18:16:11;;;;;;;2.20;0.77;;;;;;;10.43;67.62;94939.34;4937412;29;20044;-79
2024/01/03 18:18:38;;;;;;;4.65;1.08;;;;;;;10.39;67.54;94933.78;4935839;29;20060;-80
2024/01/03 18:21:06;;;;;;;2.33;0.60;;;;;;;10.35;68.02;94916.22;4937376;29;20047;-79
2024/01/03 18:23:36;;;;;;;1.15;0.70;;;;;;;10.31;68.00;94910.63;4935998;29;20055;-80
2024/01/03 18:26:05;;;;;;;1.83;0.68;;;;;;;10.29;68.86;94905.63;4938095;29;20051;-80
2024/01/03 18:28:33;;;;;;;3.13;1.20;;;;;;;10.28;68.68;94911.84;4954704;28;20120;-80
2024/01/03 18:31:00;;;;;;;2.08;1.13;;;;;;;10.28;69.06;94916.25;4948721;29;20133;-80
2024/01/03 18:33:31;;;;;;;9.45;5.40;;;;;;;10.28;68.88;94942.31;4943049;29;20517;-80
2024/01/03 18:35:59;;;;;;;1.98;1.40;;;;;;;10.26;68.66;94941.75;4941734;28;20051;-80
2024/01/03 18:38:27;;;;;;;0.98;0.45;;;;;;;10.24;68.01;94969.84;4940327;29;20102;-80
2024/01/03 18:40:59;;;;;;;2.10;0.60;;;;;;;10.20;68.58;94992.13;4944144;29;20051;-78